Time;durP1;ratioP1;P1;durP2;ratioP2;P2;SDS_P1;SDS_P2;PMS_P1;PMS_P2;Temp;Humidity;BMP_temperature;BMP_pressure;BME280_temperature;BME280_humidity;BME280_pressure;Samples;Min_cycle;Max_cycle;Signal;HPM_P1;HPM_P2
2023/07/26 00:00:25;;;;;;;;;;;15.30;99.90;;;;;;2075739;28;20023;-75
2023/07/26 00:01:26;;;;;;;;;;;15.30;99.90;;;;;;2075847;28;19917;-77
2023/07/26 00:02:26;;;;;;;;;;;15.20;99.90;;;;;;2069642;28;20312;-76
2023/07/26 00:03:27;;;;;;;;;;;15.20;99.90;;;;;;2067596;28;20111;-76
2023/07/26 00:04:27;;;;;;;;;;;15.20;99.90;;;;;;2075840;28;19921;-74
2023/07/26 00:05:29;;;;;;;;;;;15.20;99.90;;;;;;2081221;28;19916;-75
2023/07/26 00:06:29;;;;;;;;;;;15.20;99.90;;;;;;2078261;28;20174;-76
2023/07/26 00:07:30;;;;;;;;;;;15.20;99.90;;;;;;2076315;28;19924;-75
2023/07/26 00:08:30;;;;;;;;;;;15.20;99.90;;;;;;2074231;28;19920;-75
2023/07/26 00:09:31;;;;;;;;;;;15.30;99.90;;;;;;2067687;28;19914;-75
2023/07/26 00:10:31;;;;;;;;;;;15.20;99.90;;;;;;2069262;28;19913;-77
2023/07/26 00:11:32;;;;;;;;;;;15.20;99.90;;;;;;2075856;28;19924;-76
2023/07/26 00:12:32;;;;;;;;;;;15.20;99.90;;;;;;2075620;28;20484;-76
2023/07/26 00:13:33;;;;;;;;;;;15.20;99.90;;;;;;2075539;28;19921;-76
2023/07/26 00:14:33;;;;;;;;;;;15.20;99.90;;;;;;2078558;28;19992;-77
2023/07/26 00:15:34;;;;;;;;;;;15.20;99.90;;;;;;2075634;28;19983;-75
2023/07/26 00:16:34;;;;;;;;;;;15.20;99.90;;;;;;2075562;28;20315;-76
2023/07/26 00:17:35;;;;;;;;;;;15.20;99.90;;;;;;2075304;28;20470;-74
2023/07/26 00:18:37;;;;;;;;;;;15.20;99.90;;;;;;2069312;28;20552;-75
2023/07/26 00:19:38;;;;;;;;;;;15.20;99.90;;;;;;2067816;28;20380;-75
2023/07/26 00:20:38;;;;;;;;;;;15.20;99.90;;;;;;2066946;28;19917;-76
2023/07/26 00:21:39;;;;;;;;;;;15.20;99.90;;;;;;2071915;28;19913;-76
2023/07/26 00:22:39;;;;;;;;;;;15.20;99.90;;;;;;2077609;28;19952;-75
2023/07/26 00:23:40;;;;;;;;;;;15.20;99.90;;;;;;2075732;28;19913;-77
2023/07/26 00:24:40;;;;;;;;;;;15.20;99.90;;;;;;2076194;28;20003;-76
2023/07/26 00:25:41;;;;;;;;;;;15.20;99.90;;;;;;2076291;28;19920;-76
2023/07/26 00:26:41;;;;;;;;;;;15.20;99.90;;;;;;2075416;28;20002;-76
2023/07/26 00:27:42;;;;;;;;;;;15.20;99.90;;;;;;2077352;28;20302;-77
2023/07/26 00:28:42;;;;;;;;;;;15.20;99.90;;;;;;2075392;28;20404;-76
2023/07/26 00:29:43;;;;;;;;;;;15.20;99.90;;;;;;2075291;28;19921;-76
2023/07/26 00:30:46;;;;;;;;;;;15.20;99.90;;;;;;2075652;28;19914;-75
2023/07/26 00:31:47;;;;;;;;;;;15.20;99.90;;;;;;2082297;28;19924;-76
2023/07/26 00:32:47;;;;;;;;;;;15.20;99.90;;;;;;2073507;28;19924;-76
2023/07/26 00:33:48;;;;;;;;;;;15.20;99.90;;;;;;2065033;28;20301;-75
2023/07/26 00:34:48;;;;;;;;;;;15.20;99.90;;;;;;2067383;28;20004;-75
2023/07/26 00:35:49;;;;;;;;;;;15.20;99.90;;;;;;2075781;28;19921;-75
2023/07/26 00:36:50;;;;;;;;;;;15.20;99.90;;;;;;2077229;28;20476;-76
2023/07/26 00:37:51;;;;;;;;;;;15.20;99.90;;;;;;2072812;28;20443;-75
2023/07/26 00:38:52;;;;;;;;;;;15.20;99.90;;;;;;2074455;28;19913;-76
2023/07/26 00:39:52;;;;;;;;;;;15.20;99.90;;;;;;2078708;28;20000;-75
2023/07/26 00:40:53;;;;;;;;;;;15.20;99.90;;;;;;2082095;28;20380;-75
2023/07/26 00:41:53;;;;;;;;;;;15.20;99.90;;;;;;2076551;28;19948;-75
2023/07/26 00:42:54;;;;;;;;;;;15.20;99.90;;;;;;2076835;28;19960;-75
2023/07/26 00:43:54;;;;;;;;;;;15.20;99.90;;;;;;2070938;28;20413;-75
2023/07/26 00:44:55;;;;;;;;;;;15.20;99.90;;;;;;2085603;28;19952;-75
2023/07/26 00:45:56;;;;;;;;;;;15.20;99.90;;;;;;2080798;28;19921;-75
2023/07/26 00:46:56;;;;;;;;;;;15.20;99.90;;;;;;2078617;28;20391;-76
2023/07/26 00:47:59;;;;;;;;;;;15.20;99.90;;;;;;2076123;28;20003;-76
2023/07/26 00:49:01;;;;;;;;;;;15.20;99.90;;;;;;2076081;28;20430;-76
2023/07/26 00:50:01;;;;;;;;;;;15.20;99.90;;;;;;2077509;28;19924;-76
2023/07/26 00:51:02;;;;;;;;;;;15.30;99.90;;;;;;2075329;28;20415;-75
2023/07/26 00:52:03;;;;;;;;;;;15.20;99.90;;;;;;2075381;28;19925;-75
2023/07/26 00:53:04;;;;;;;;;;;15.20;99.90;;;;;;2075924;28;19921;-76
2023/07/26 00:54:05;;;;;;;;;;;15.20;99.90;;;;;;2077847;28;19914;-76
2023/07/26 00:55:06;;;;;;;;;;;15.20;99.90;;;;;;2072564;28;19913;-77
2023/07/26 00:56:09;;;;;;;;;;;15.20;99.90;;;;;;2075352;28;19913;-77
2023/07/26 00:57:10;;;;;;;;;;;15.20;99.90;;;;;;2075221;28;19928;-76
2023/07/26 00:58:11;;;;;;;;;;;15.20;99.90;;;;;;2075288;28;20499;-75
2023/07/26 00:59:12;;;;;;;;;;;15.20;99.90;;;;;;2077387;28;19932;-77
2023/07/26 01:00:13;;;;;;;;;;;15.20;99.90;;;;;;2067227;28;19917;-76
2023/07/26 01:01:13;;;;;;;;;;;15.20;99.90;;;;;;2070802;28;19965;-75
2023/07/26 01:02:14;;;;;;;;;;;15.20;99.90;;;;;;2080412;28;19917;-75
2023/07/26 01:03:14;;;;;;;;;;;15.20;99.90;;;;;;2075121;28;19995;-75
2023/07/26 01:04:15;;;;;;;;;;;15.20;99.90;;;;;;2077104;28;19917;-75
2023/07/26 01:05:16;;;;;;;;;;;15.20;99.90;;;;;;2067179;28;20297;-75
2023/07/26 01:06:29;;;;;;;;;;;15.20;99.90;;;;;;2078333;28;19913;-74
2023/07/26 01:07:35;;;;;;;;;;;15.20;99.90;;;;;;2084448;28;19995;-76
2023/07/26 01:08:41;;;;;;;;;;;15.20;99.90;;;;;;2070705;28;20311;-76
2023/07/26 01:09:49;;;;;;;;;;;15.20;99.90;;;;;;2076029;28;19921;-76
2023/07/26 01:10:53;;;;;;;;;;;15.20;99.90;;;;;;2075264;28;19917;-74
2023/07/26 01:12:29;;;;;;;;;;;15.20;99.90;;;;;;2075400;28;20288;-75
2023/07/26 01:13:35;;;;;;;;;;;15.20;99.90;;;;;;2064683;28;19913;-76
2023/07/26 01:14:51;;;;;;;;;;;15.10;99.90;;;;;;2060167;28;19932;-74
2023/07/26 01:15:52;;;;;;;;;;;15.10;99.90;;;;;;2062476;28;19918;-75
2023/07/26 01:16:53;;;;;;;;;;;15.10;99.90;;;;;;2077507;28;19987;-75
2023/07/26 01:18:06;;;;;;;;;;;15.10;99.90;;;;;;2076052;28;19967;-75
2023/07/26 01:19:07;;;;;;;;;;;15.10;99.90;;;;;;2072927;28;19949;-74
2023/07/26 01:20:07;;;;;;;;;;;15.10;99.90;;;;;;2075875;28;19929;-75
2023/07/26 01:21:08;;;;;;;;;;;15.10;99.90;;;;;;2075322;28;19991;-75
2023/07/26 01:22:08;;;;;;;;;;;15.10;99.90;;;;;;2075147;28;19951;-75
2023/07/26 01:23:09;;;;;;;;;;;15.10;99.90;;;;;;2077356;28;19980;-76
2023/07/26 01:24:09;;;;;;;;;;;15.10;99.90;;;;;;2075110;28;19920;-75
2023/07/26 01:25:10;;;;;;;;;;;15.10;99.90;;;;;;2076028;28;19959;-76
2023/07/26 01:26:10;;;;;;;;;;;15.10;99.90;;;;;;2075968;28;19971;-77
2023/07/26 01:27:11;;;;;;;;;;;15.10;99.90;;;;;;2077949;28;20011;-75
2023/07/26 01:28:11;;;;;;;;;;;15.10;99.90;;;;;;2075426;28;19966;-75
2023/07/26 01:29:12;;;;;;;;;;;15.10;99.90;;;;;;2074896;28;19913;-75
2023/07/26 01:30:12;;;;;;;;;;;15.10;99.90;;;;;;2075161;28;19944;-75
2023/07/26 01:31:15;;;;;;;;;;;15.10;99.90;;;;;;2071108;28;19913;-77
2023/07/26 01:32:16;;;;;;;;;;;15.10;99.90;;;;;;2075355;28;20139;-76
2023/07/26 01:33:17;;;;;;;;;;;15.10;99.90;;;;;;2077897;28;19987;-75
2023/07/26 01:34:18;;;;;;;;;;;15.10;99.90;;;;;;2075742;28;19921;-75
2023/07/26 01:35:20;;;;;;;;;;;15.00;99.90;;;;;;2075227;28;19992;-76
2023/07/26 01:36:22;;;;;;;;;;;15.00;99.90;;;;;;2074967;28;19921;-76
2023/07/26 01:37:24;;;;;;;;;;;15.00;99.90;;;;;;2076683;28;19925;-75
2023/07/26 01:38:25;;;;;;;;;;;15.00;99.90;;;;;;2066953;28;19925;-75
2023/07/26 01:39:27;;;;;;;;;;;15.00;99.90;;;;;;2078339;28;20111;-75
2023/07/26 01:40:28;;;;;;;;;;;15.00;99.90;;;;;;2078191;28;19921;-76
2023/07/26 01:41:29;;;;;;;;;;;14.90;99.90;;;;;;2075086;28;19928;-75
2023/07/26 01:42:29;;;;;;;;;;;14.90;99.90;;;;;;2077808;28;19924;-76
2023/07/26 01:43:32;;;;;;;;;;;14.90;99.90;;;;;;2075783;28;19913;-76
2023/07/26 01:44:36;;;;;;;;;;;14.90;99.90;;;;;;2075522;28;19939;-75
2023/07/26 01:45:37;;;;;;;;;;;14.90;99.90;;;;;;2074907;28;20343;-76
2023/07/26 01:46:37;;;;;;;;;;;14.90;99.90;;;;;;2076835;28;19921;-75
2023/07/26 01:47:38;;;;;;;;;;;14.90;99.90;;;;;;2074772;28;20316;-76
2023/07/26 01:48:39;;;;;;;;;;;14.90;99.90;;;;;;2078793;28;20386;-76
2023/07/26 01:49:40;;;;;;;;;;;14.80;99.90;;;;;;2078762;28;19917;-75
2023/07/26 01:50:40;;;;;;;;;;;14.80;99.90;;;;;;2066779;28;19914;-76
2023/07/26 01:51:41;;;;;;;;;;;14.80;99.90;;;;;;2077053;28;19917;-76
2023/07/26 01:52:43;;;;;;;;;;;14.80;99.90;;;;;;2068599;28;19925;-75
2023/07/26 01:53:44;;;;;;;;;;;14.80;99.90;;;;;;2058787;28;19918;-75
2023/07/26 01:54:44;;;;;;;;;;;14.80;99.90;;;;;;2066919;28;19996;-75
2023/07/26 01:55:45;;;;;;;;;;;14.70;99.90;;;;;;2068613;28;19921;-75
2023/07/26 01:56:45;;;;;;;;;;;14.70;99.90;;;;;;2078295;28;19913;-73
2023/07/26 01:57:46;;;;;;;;;;;14.60;99.90;;;;;;2086872;28;19919;-73
2023/07/26 01:58:46;;;;;;;;;;;14.60;99.90;;;;;;2074990;28;20368;-75
2023/07/26 01:59:47;;;;;;;;;;;14.70;99.90;;;;;;2078843;28;19913;-75
2023/07/26 02:00:47;;;;;;;;;;;14.60;99.90;;;;;;2070093;28;19917;-78
2023/07/26 02:01:48;;;;;;;;;;;14.60;99.90;;;;;;2081439;28;19917;-82
2023/07/26 02:02:49;;;;;;;;;;;14.60;99.90;;;;;;2075783;28;20004;-82
2023/07/26 02:03:49;;;;;;;;;;;14.60;99.90;;;;;;2077991;28;20424;-81
2023/07/26 02:04:50;;;;;;;;;;;14.60;99.90;;;;;;2088286;28;19912;-81
2023/07/26 02:05:51;;;;;;;;;;;14.50;99.90;;;;;;2076588;28;20312;-82
2023/07/26 02:06:52;;;;;;;;;;;14.60;99.90;;;;;;2074938;28;20380;-82
2023/07/26 02:07:53;;;;;;;;;;;14.50;99.90;;;;;;2074655;28;20612;-82
2023/07/26 02:08:53;;;;;;;;;;;14.50;99.90;;;;;;2071734;28;19929;-79
2023/07/26 02:09:54;;;;;;;;;;;14.50;99.90;;;;;;2078744;28;19920;-78
2023/07/26 02:10:54;;;;;;;;;;;14.50;99.90;;;;;;2081887;28;19943;-81
2023/07/26 02:11:55;;;;;;;;;;;14.40;99.90;;;;;;2075534;28;19924;-82
2023/07/26 02:12:57;;;;;;;;;;;14.50;99.90;;;;;;2074815;28;19928;-83
2023/07/26 02:13:57;;;;;;;;;;;14.40;99.90;;;;;;2076994;28;20463;-81
2023/07/26 02:14:59;;;;;;;;;;;14.40;99.90;;;;;;2076322;28;20023;-82
2023/07/26 02:15:59;;;;;;;;;;;14.40;99.90;;;;;;2075833;28;19948;-80
2023/07/26 02:17:00;;;;;;;;;;;14.40;99.90;;;;;;2076224;28;19967;-84
2023/07/26 02:18:00;;;;;;;;;;;14.40;99.90;;;;;;2075795;28;19920;-81
2023/07/26 02:19:04;;;;;;;;;;;14.30;99.90;;;;;;2075079;28;20391;-83
2023/07/26 02:20:05;;;;;;;;;;;14.30;99.90;;;;;;2067406;28;19955;-82
2023/07/26 02:21:05;;;;;;;;;;;14.30;99.90;;;;;;2080875;28;19913;-82
2023/07/26 02:22:06;;;;;;;;;;;14.30;99.90;;;;;;2079323;28;19913;-83
2023/07/26 02:23:06;;;;;;;;;;;14.30;99.90;;;;;;2074807;28;20010;-83
2023/07/26 02:24:08;;;;;;;;;;;14.30;99.90;;;;;;2075092;28;19914;-84
2023/07/26 02:25:09;;;;;;;;;;;14.30;99.90;;;;;;2077017;28;19999;-82
2023/07/26 02:26:09;;;;;;;;;;;14.30;99.90;;;;;;2072094;28;19917;-84
2023/07/26 02:27:10;;;;;;;;;;;14.30;99.90;;;;;;2075062;28;19917;-81
2023/07/26 02:28:11;;;;;;;;;;;14.30;99.90;;;;;;2075292;28;19949;-82
2023/07/26 02:29:11;;;;;;;;;;;14.30;99.90;;;;;;2077052;28;19917;-82
2023/07/26 02:30:12;;;;;;;;;;;14.30;99.90;;;;;;2075244;28;20347;-80
2023/07/26 02:31:12;;;;;;;;;;;14.20;99.90;;;;;;2074868;28;19924;-80
2023/07/26 02:32:13;;;;;;;;;;;14.30;99.90;;;;;;2079510;28;20011;-81
2023/07/26 02:33:14;;;;;;;;;;;14.20;99.90;;;;;;2080741;28;20011;-81
2023/07/26 02:34:14;;;;;;;;;;;14.20;99.90;;;;;;2066873;28;19921;-82
2023/07/26 02:35:15;;;;;;;;;;;14.20;99.90;;;;;;2066659;28;19957;-82
2023/07/26 02:36:15;;;;;;;;;;;14.20;99.90;;;;;;2066654;28;20488;-82
2023/07/26 02:37:16;;;;;;;;;;;14.20;99.90;;;;;;2063142;28;20408;-79
2023/07/26 02:38:16;;;;;;;;;;;14.20;99.90;;;;;;2076930;28;19921;-82
2023/07/26 02:39:18;;;;;;;;;;;14.20;99.90;;;;;;2074889;28;19913;-82
2023/07/26 02:40:18;;;;;;;;;;;14.20;99.90;;;;;;2075321;28;19913;-80
2023/07/26 02:41:19;;;;;;;;;;;14.20;99.90;;;;;;2074968;28;19923;-83
2023/07/26 02:42:20;;;;;;;;;;;14.20;99.90;;;;;;2076649;28;20352;-81
2023/07/26 02:43:20;;;;;;;;;;;14.30;99.90;;;;;;2083953;28;19924;-81
2023/07/26 02:44:21;;;;;;;;;;;14.30;99.90;;;;;;2070609;28;19987;-82
2023/07/26 02:45:21;;;;;;;;;;;14.30;99.90;;;;;;2067227;28;20489;-83
2023/07/26 02:46:22;;;;;;;;;;;14.30;99.90;;;;;;2071557;28;20287;-81
2023/07/26 02:47:22;;;;;;;;;;;14.30;99.90;;;;;;2076844;28;20079;-81
2023/07/26 02:48:23;;;;;;;;;;;14.30;99.90;;;;;;2075018;28;20370;-81
2023/07/26 02:49:23;;;;;;;;;;;14.30;99.90;;;;;;2074668;28;19989;-80
2023/07/26 02:50:24;;;;;;;;;;;14.30;99.90;;;;;;2075633;28;19939;-81
2023/07/26 02:51:24;;;;;;;;;;;14.30;99.90;;;;;;2075044;28;19989;-80
2023/07/26 02:52:25;;;;;;;;;;;14.40;99.90;;;;;;2068562;28;19918;-82
2023/07/26 02:53:25;;;;;;;;;;;14.40;99.90;;;;;;2066879;28;19925;-80
2023/07/26 02:54:26;;;;;;;;;;;14.40;99.90;;;;;;2076193;28;20433;-83
2023/07/26 02:55:26;;;;;;;;;;;14.40;99.90;;;;;;2081688;28;20482;-82
2023/07/26 02:56:27;;;;;;;;;;;14.40;99.90;;;;;;2076954;28;20180;-81
2023/07/26 02:57:28;;;;;;;;;;;14.40;99.90;;;;;;2074823;28;19968;-83
2023/07/26 02:58:28;;;;;;;;;;;14.40;99.90;;;;;;2075722;28;20444;-83
2023/07/26 02:59:29;;;;;;;;;;;14.40;99.90;;;;;;2076795;28;20347;-81
2023/07/26 03:00:29;;;;;;;;;;;14.40;99.90;;;;;;2071845;28;19955;-82
2023/07/26 03:01:30;;;;;;;;;;;14.40;99.90;;;;;;2073527;28;19939;-82
2023/07/26 03:02:31;;;;;;;;;;;14.40;99.90;;;;;;2074806;28;19917;-81
2023/07/26 03:03:31;;;;;;;;;;;14.40;99.90;;;;;;2077583;28;19913;-81
2023/07/26 03:04:32;;;;;;;;;;;14.40;99.90;;;;;;2076737;28;20047;-79
2023/07/26 03:05:37;;;;;;;;;;;14.40;99.90;;;;;;2074613;28;19988;-82
2023/07/26 03:06:39;;;;;;;;;;;14.40;99.90;;;;;;2066605;28;19918;-82
2023/07/26 03:07:40;;;;;;;;;;;14.40;99.90;;;;;;2066332;28;19918;-81
2023/07/26 03:08:40;;;;;;;;;;;14.40;99.90;;;;;;2070540;28;19924;-82
2023/07/26 03:09:41;;;;;;;;;;;14.40;99.90;;;;;;2076291;28;19947;-81
2023/07/26 03:10:41;;;;;;;;;;;14.40;99.90;;;;;;2074881;28;19956;-80
2023/07/26 03:11:42;;;;;;;;;;;14.40;99.90;;;;;;2075546;28;19960;-82
2023/07/26 03:12:43;;;;;;;;;;;14.40;99.90;;;;;;2075601;28;20028;-80
2023/07/26 03:13:43;;;;;;;;;;;14.40;99.90;;;;;;2077076;28;19924;-80
2023/07/26 03:14:44;;;;;;;;;;;14.50;99.90;;;;;;2074833;28;19947;-81
2023/07/26 03:15:45;;;;;;;;;;;14.50;99.90;;;;;;2075966;28;20395;-81
2023/07/26 03:16:45;;;;;;;;;;;14.50;99.90;;;;;;2074810;28;20020;-82
2023/07/26 03:17:46;;;;;;;;;;;14.50;99.90;;;;;;2077850;28;19940;-78
2023/07/26 03:18:48;;;;;;;;;;;14.50;99.90;;;;;;2068278;28;20180;-80
2023/07/26 03:19:50;;;;;;;;;;;14.50;99.90;;;;;;2066846;28;20392;-81
2023/07/26 03:20:50;;;;;;;;;;;14.50;99.90;;;;;;2075541;28;20004;-82
2023/07/26 03:21:51;;;;;;;;;;;14.50;99.90;;;;;;2078570;28;19951;-81
2023/07/26 03:22:51;;;;;;;;;;;14.50;99.90;;;;;;2077169;28;20335;-82
2023/07/26 03:23:52;;;;;;;;;;;14.50;99.90;;;;;;2073170;28;19929;-80
2023/07/26 03:24:52;;;;;;;;;;;14.50;99.90;;;;;;2068335;28;19943;-81
2023/07/26 03:25:54;;;;;;;;;;;14.40;99.90;;;;;;2079119;28;19935;-81
2023/07/26 03:26:55;;;;;;;;;;;14.40;99.90;;;;;;2076640;28;19917;-82
2023/07/26 03:27:56;;;;;;;;;;;14.40;99.90;;;;;;2068240;28;19913;-83
2023/07/26 03:28:56;;;;;;;;;;;14.40;99.90;;;;;;2065475;28;19917;-81
2023/07/26 03:29:57;;;;;;;;;;;14.40;99.90;;;;;;2069876;28;19925;-80
2023/07/26 03:30:57;;;;;;;;;;;14.40;99.90;;;;;;2068264;28;19921;-81
2023/07/26 03:31:58;;;;;;;;;;;14.40;99.90;;;;;;2076337;28;19913;-79
2023/07/26 03:32:58;;;;;;;;;;;14.40;99.90;;;;;;2077092;28;20004;-81
2023/07/26 03:33:59;;;;;;;;;;;14.40;99.90;;;;;;2078088;28;19917;-81
2023/07/26 03:35:00;;;;;;;;;;;14.40;99.90;;;;;;2076357;28;20002;-80
2023/07/26 03:36:00;;;;;;;;;;;14.40;99.90;;;;;;2076004;28;19916;-81
2023/07/26 03:37:02;;;;;;;;;;;14.30;99.90;;;;;;2079956;28;19932;-81
2023/07/26 03:38:02;;;;;;;;;;;14.40;99.90;;;;;;2070805;28;19924;-80
2023/07/26 03:39:03;;;;;;;;;;;14.40;99.90;;;;;;2055833;28;19940;-79
2023/07/26 03:40:04;;;;;;;;;;;14.40;99.90;;;;;;2078355;28;19955;-80
2023/07/26 03:41:04;;;;;;;;;;;14.40;99.90;;;;;;2076041;28;20473;-79
2023/07/26 03:42:05;;;;;;;;;;;14.40;99.90;;;;;;2076220;28;19921;-80
2023/07/26 03:43:06;;;;;;;;;;;14.40;99.90;;;;;;2076750;28;19935;-80
2023/07/26 03:44:06;;;;;;;;;;;14.40;99.90;;;;;;2077526;28;19913;-81
2023/07/26 03:45:07;;;;;;;;;;;14.40;99.90;;;;;;2076291;28;20437;-81
2023/07/26 03:46:08;;;;;;;;;;;14.40;99.90;;;;;;2078198;28;19920;-78
2023/07/26 03:47:11;;;;;;;;;;;14.40;99.90;;;;;;2076290;28;19921;-81
2023/07/26 03:48:14;;;;;;;;;;;14.40;99.90;;;;;;2077178;28;19917;-81
2023/07/26 03:49:15;;;;;;;;;;;14.50;99.90;;;;;;2076550;28;20011;-79
2023/07/26 03:50:15;;;;;;;;;;;14.50;99.90;;;;;;2078308;28;19949;-79
2023/07/26 03:51:16;;;;;;;;;;;14.50;99.90;;;;;;2075942;28;19924;-80
2023/07/26 03:52:16;;;;;;;;;;;14.50;99.90;;;;;;2077605;28;19978;-79
2023/07/26 03:53:17;;;;;;;;;;;14.50;99.90;;;;;;2076741;28;19999;-80
2023/07/26 03:54:17;;;;;;;;;;;14.40;99.90;;;;;;2061699;28;20308;-81
2023/07/26 03:55:18;;;;;;;;;;;14.40;99.90;;;;;;2067886;28;22625;-81
2023/07/26 03:56:18;;;;;;;;;;;14.40;99.90;;;;;;2075848;28;19948;-80
2023/07/26 03:57:19;;;;;;;;;;;14.40;99.90;;;;;;2067705;28;19984;-82
2023/07/26 03:58:19;;;;;;;;;;;14.40;99.90;;;;;;2069676;28;20381;-82
2023/07/26 03:59:20;;;;;;;;;;;14.40;99.90;;;;;;2076733;28;19921;-82
2023/07/26 04:00:20;;;;;;;;;;;14.40;99.90;;;;;;2075858;28;19971;-84
2023/07/26 04:01:21;;;;;;;;;;;14.50;99.90;;;;;;2075883;28;20458;-82
2023/07/26 04:02:21;;;;;;;;;;;14.50;99.90;;;;;;2078646;28;19917;-82
2023/07/26 04:03:22;;;;;;;;;;;14.50;99.90;;;;;;2079255;28;20007;-81
2023/07/26 04:04:22;;;;;;;;;;;14.50;99.90;;;;;;2079274;28;19963;-81
2023/07/26 04:05:23;;;;;;;;;;;14.50;99.90;;;;;;2067435;28;19918;-83
2023/07/26 04:06:25;;;;;;;;;;;14.50;99.90;;;;;;2075885;28;19956;-81
2023/07/26 04:07:25;;;;;;;;;;;14.50;99.90;;;;;;2081469;28;20012;-82
2023/07/26 04:08:26;;;;;;;;;;;14.50;99.90;;;;;;2076164;28;19975;-82
2023/07/26 04:09:27;;;;;;;;;;;14.50;99.90;;;;;;2076681;28;19921;-82
2023/07/26 04:10:28;;;;;;;;;;;14.50;99.90;;;;;;2075863;28;19913;-81
2023/07/26 04:11:29;;;;;;;;;;;14.50;99.90;;;;;;2082394;28;20438;-83
2023/07/26 04:12:29;;;;;;;;;;;14.50;99.90;;;;;;2078075;28;20372;-81
2023/07/26 04:13:30;;;;;;;;;;;14.50;99.90;;;;;;2076703;28;19917;-82
2023/07/26 04:14:30;;;;;;;;;;;14.50;99.90;;;;;;2076372;28;19917;-81
2023/07/26 04:15:31;;;;;;;;;;;14.50;99.90;;;;;;2076577;28;19921;-77
2023/07/26 04:16:31;;;;;;;;;;;14.50;99.90;;;;;;2077922;28;20550;-81
2023/07/26 04:17:32;;;;;;;;;;;14.50;99.90;;;;;;2075713;28;20367;-82
2023/07/26 04:18:32;;;;;;;;;;;14.50;99.90;;;;;;2075813;28;20154;-83
2023/07/26 04:19:33;;;;;;;;;;;14.40;99.90;;;;;;2075612;28;20373;-81
2023/07/26 04:20:33;;;;;;;;;;;14.40;99.90;;;;;;2077658;28;19917;-83
2023/07/26 04:21:34;;;;;;;;;;;14.40;99.90;;;;;;2074737;28;20020;-80
2023/07/26 04:22:34;;;;;;;;;;;14.40;99.90;;;;;;2075490;28;20307;-82
2023/07/26 04:23:35;;;;;;;;;;;14.40;99.90;;;;;;2076561;28;19913;-82
2023/07/26 04:24:40;;;;;;;;;;;14.50;99.90;;;;;;2078392;28;19956;-82
2023/07/26 04:25:40;;;;;;;;;;;14.50;99.90;;;;;;2078667;28;20103;-82
2023/07/26 04:26:41;;;;;;;;;;;14.50;99.90;;;;;;2075730;28;19913;-82
2023/07/26 04:27:41;;;;;;;;;;;14.50;99.90;;;;;;2067587;28;19943;-81
2023/07/26 04:28:42;;;;;;;;;;;14.50;99.90;;;;;;2075784;28;19924;-83
2023/07/26 04:29:42;;;;;;;;;;;14.50;99.90;;;;;;2076999;28;19963;-83
2023/07/26 04:30:43;;;;;;;;;;;14.50;99.90;;;;;;2064746;28;19925;-81
2023/07/26 04:31:44;;;;;;;;;;;14.50;99.90;;;;;;2074250;28;20408;-80
2023/07/26 04:32:44;;;;;;;;;;;14.50;99.90;;;;;;2075914;28;19960;-82
2023/07/26 04:33:47;;;;;;;;;;;14.60;99.90;;;;;;2075774;28;20336;-75
2023/07/26 04:34:47;;;;;;;;;;;14.60;99.90;;;;;;2078343;28;20402;-78
2023/07/26 04:35:48;;;;;;;;;;;14.50;99.90;;;;;;2076536;28;19917;-80
2023/07/26 04:36:48;;;;;;;;;;;14.60;99.90;;;;;;2068360;28;20008;-77
2023/07/26 04:37:49;;;;;;;;;;;14.60;99.90;;;;;;2072329;28;19920;-78
2023/07/26 04:38:49;;;;;;;;;;;14.60;99.90;;;;;;2078115;28;19917;-79
2023/07/26 04:39:50;;;;;;;;;;;14.60;99.90;;;;;;2075659;28;19971;-78
2023/07/26 04:40:50;;;;;;;;;;;14.60;99.90;;;;;;2070540;28;19913;-77
2023/07/26 04:41:51;;;;;;;;;;;14.60;99.90;;;;;;2076260;28;19913;-77
2023/07/26 04:42:52;;;;;;;;;;;14.60;99.90;;;;;;2078221;28;19985;-80
2023/07/26 04:43:52;;;;;;;;;;;14.60;99.90;;;;;;2074957;28;20016;-80
2023/07/26 04:44:53;;;;;;;;;;;14.60;99.90;;;;;;2068070;28;19940;-84
2023/07/26 04:45:53;;;;;;;;;;;14.60;99.90;;;;;;2067456;28;20372;-81
2023/07/26 04:46:54;;;;;;;;;;;14.60;99.90;;;;;;2067517;28;19917;-82
2023/07/26 04:47:54;;;;;;;;;;;14.60;99.90;;;;;;2069237;28;19945;-84
2023/07/26 04:48:55;;;;;;;;;;;14.60;99.90;;;;;;2076369;28;20342;-83
2023/07/26 04:49:55;;;;;;;;;;;14.60;99.90;;;;;;2076524;28;19917;-83
2023/07/26 04:50:56;;;;;;;;;;;14.60;99.90;;;;;;2067624;28;20656;-80
2023/07/26 04:51:56;;;;;;;;;;;14.60;99.90;;;;;;2069482;28;19917;-81
2023/07/26 04:52:57;;;;;;;;;;;14.60;99.90;;;;;;2075500;28;19925;-81
2023/07/26 04:53:57;;;;;;;;;;;14.60;99.90;;;;;;2076047;28;19964;-83
2023/07/26 04:54:59;;;;;;;;;;;14.60;99.90;;;;;;2076193;28;20394;-82
2023/07/26 04:55:59;;;;;;;;;;;14.70;99.90;;;;;;2073607;28;19913;-84
2023/07/26 04:57:00;;;;;;;;;;;14.70;99.90;;;;;;2076151;28;20027;-81
2023/07/26 04:58:00;;;;;;;;;;;14.70;99.90;;;;;;2076321;28;20403;-84
2023/07/26 04:59:01;;;;;;;;;;;14.70;99.90;;;;;;2076320;28;19917;-81
2023/07/26 05:00:01;;;;;;;;;;;14.70;99.90;;;;;;2078220;28;19920;-83
2023/07/26 05:01:02;;;;;;;;;;;14.70;99.90;;;;;;2075678;28;19957;-83
2023/07/26 05:02:02;;;;;;;;;;;14.70;99.90;;;;;;2067359;28;19913;-81
2023/07/26 05:03:03;;;;;;;;;;;14.70;99.90;;;;;;2074880;28;19923;-83
2023/07/26 05:04:03;;;;;;;;;;;14.70;99.90;;;;;;2078153;28;20387;-82
2023/07/26 05:05:04;;;;;;;;;;;14.70;99.90;;;;;;2071424;28;20343;-81
2023/07/26 05:06:05;;;;;;;;;;;14.70;99.90;;;;;;2075505;28;20019;-82
2023/07/26 05:07:05;;;;;;;;;;;14.70;99.90;;;;;;2076545;28;20007;-78
2023/07/26 05:08:06;;;;;;;;;;;14.70;99.90;;;;;;2078147;28;19924;-81
2023/07/26 05:09:07;;;;;;;;;;;14.80;99.90;;;;;;2067106;28;19961;-82
2023/07/26 05:10:07;;;;;;;;;;;14.90;99.90;;;;;;2075780;28;20288;-81
2023/07/26 05:11:08;;;;;;;;;;;14.90;99.90;;;;;;2076140;28;19987;-81
2023/07/26 05:12:08;;;;;;;;;;;15.00;99.90;;;;;;2076307;28;19913;-80
2023/07/26 05:13:09;;;;;;;;;;;15.00;99.90;;;;;;2078116;28;20321;-80
2023/07/26 05:14:10;;;;;;;;;;;14.90;99.90;;;;;;2075408;28;19925;-82
2023/07/26 05:15:10;;;;;;;;;;;14.90;99.90;;;;;;2067155;28;20502;-80
2023/07/26 05:16:11;;;;;;;;;;;15.00;99.90;;;;;;2067303;28;19913;-81
2023/07/26 05:17:11;;;;;;;;;;;15.00;99.90;;;;;;2077425;28;19921;-80
2023/07/26 05:18:14;;;;;;;;;;;15.10;99.90;;;;;;2076150;28;19928;-81
2023/07/26 05:19:14;;;;;;;;;;;15.10;99.90;;;;;;2076106;28;20209;-82
2023/07/26 05:20:15;;;;;;;;;;;15.20;99.90;;;;;;2075112;28;20022;-81
2023/07/26 05:21:16;;;;;;;;;;;15.20;99.90;;;;;;2075392;28;19913;-83
2023/07/26 05:22:16;;;;;;;;;;;15.30;99.90;;;;;;2077958;28;19924;-80
2023/07/26 05:23:17;;;;;;;;;;;15.30;99.90;;;;;;2075319;28;20475;-82
2023/07/26 05:24:18;;;;;;;;;;;15.40;99.90;;;;;;2075576;28;20806;-84
2023/07/26 05:25:19;;;;;;;;;;;15.40;99.90;;;;;;2076080;28;19913;-80
2023/07/26 05:26:19;;;;;;;;;;;15.40;99.90;;;;;;2077548;28;19909;-80
2023/07/26 05:27:19;;;;;;;;;;;15.40;99.90;;;;;;2075240;28;19924;-81
2023/07/26 05:28:20;;;;;;;;;;;15.40;99.90;;;;;;2075235;28;19945;-81
2023/07/26 05:29:21;;;;;;;;;;;15.40;99.90;;;;;;2067406;28;19922;-80
2023/07/26 05:30:21;;;;;;;;;;;15.50;99.90;;;;;;2078662;28;19917;-78
2023/07/26 05:31:22;;;;;;;;;;;15.60;99.90;;;;;;2070653;28;19913;-79
2023/07/26 05:32:23;;;;;;;;;;;15.70;99.90;;;;;;2067909;28;20452;-82
2023/07/26 05:33:23;;;;;;;;;;;15.60;99.90;;;;;;2072741;28;19917;-81
2023/07/26 05:34:24;;;;;;;;;;;15.70;99.90;;;;;;2075319;28;20400;-81
2023/07/26 05:35:24;;;;;;;;;;;15.70;99.90;;;;;;2088172;28;19963;-80
2023/07/26 05:36:25;;;;;;;;;;;15.80;99.90;;;;;;2069186;28;19913;-81
2023/07/26 05:37:25;;;;;;;;;;;15.80;99.90;;;;;;2070015;28;19928;-83
2023/07/26 05:38:26;;;;;;;;;;;15.90;99.90;;;;;;2074297;28;20380;-83
2023/07/26 05:39:26;;;;;;;;;;;16.00;99.90;;;;;;2087460;28;19995;-81
2023/07/26 05:40:27;;;;;;;;;;;16.10;99.90;;;;;;2078710;28;20490;-81
2023/07/26 05:41:31;;;;;;;;;;;16.10;99.90;;;;;;2076876;28;19928;-81
2023/07/26 05:42:32;;;;;;;;;;;16.20;99.90;;;;;;2068994;28;19948;-80
2023/07/26 05:43:33;;;;;;;;;;;16.30;99.90;;;;;;2067519;28;20012;-79
2023/07/26 05:44:33;;;;;;;;;;;16.40;99.90;;;;;;2075168;28;20011;-78
2023/07/26 05:45:34;;;;;;;;;;;16.50;99.90;;;;;;2075820;28;19913;-79
2023/07/26 05:46:34;;;;;;;;;;;16.60;99.90;;;;;;2073094;28;19924;-81
2023/07/26 05:47:38;;;;;;;;;;;16.60;99.90;;;;;;2075637;28;19924;-78
2023/07/26 05:48:38;;;;;;;;;;;16.40;99.90;;;;;;2075556;28;19917;-80
2023/07/26 05:49:42;;;;;;;;;;;16.40;99.90;;;;;;2075554;28;20473;-81
2023/07/26 05:50:47;;;;;;;;;;;16.20;99.90;;;;;;2075032;28;20416;-77
2023/07/26 05:51:47;;;;;;;;;;;16.00;99.90;;;;;;2077303;28;19995;-80
2023/07/26 05:52:49;;;;;;;;;;;15.90;99.90;;;;;;2072269;28;19917;-81
2023/07/26 05:53:49;;;;;;;;;;;15.80;99.90;;;;;;2075484;28;20583;-79
2023/07/26 05:54:50;;;;;;;;;;;15.70;99.90;;;;;;2075718;28;20024;-81